West Plains, MO

10:54 AM CDT on July 30, 2014 (GMT -0500)
Waynesville Regional At Forney Field (KTBN) Elev 1158 ft | 37.74 °N, 92.14 °W | Change Station

Current weather conditions updated 56 minutes ago

Scattered Clouds
Scattered Clouds
67 °F
Feels Like 67 °F
N
0
Wind Variable Wind from North

Today is forecast to be Cooler than yesterday.

Today
High -- | Low -- °F
--% Chance of Precip.
Yesterday
High -- | Low -- °F
Precip. -- in
6:11 AM 8:15 PM
Waxing Crescent, 12% visible
Pressure 30.09 in
Visibility 10.0 miles
Clouds Scattered Clouds 17000 ft
Dew Point 62 °F
Humidity 84%
Rainfall 0.00 in
Snow Depth Not available.
UV 5 out of 12
Pollen 5.30 out of 12
Air Quality Not available.
Flu Activity Not available.
METAR KTBN 301458Z AUTO 00000KT 10SM SCT170 20/17 A3010 RMK AO2 SLP189 T01950168 50003

More Conditions Fewer Conditions

Pressure 30.09 in
Visibility 10.0 miles
Clouds Scattered Clouds 17000 ft
Dew Point 62 °F
Humidity 84%
Rainfall 0.00 in
Snow Depth Not available.
UV 5 out of 12
Pollen 5.30 out of 12
Air Quality Not available.
Flu Activity Not available.
METAR KTBN 301458Z AUTO 00000KT 10SM SCT170 20/17 A3010 RMK AO2 SLP189 T01950168 50003

More Conditions Fewer Conditions

10-Day Weather Forecast

Almanac

Astronomy

Jul. 30, 2014 Rise Set
Actual Time 6:11 AM CDT 8:15 PM CDT
Civil Twilight 5:42 AM CDT 8:44 PM CDT
Nautical Twilight 5:07 AM CDT 9:19 PM CDT
Astronomical Twilight 4:29 AM CDT 9:56 PM CDT
Moon 9:36 AM CDT 10:05 PM CDT
Length of Visible Light 15h 01m
Length of Day
14h 03m
Tomorrow will be 1m 43s shorter.
Waxing Crescent, 12% of the Moon is Illuminated
Today
Waxing Crescent
Aug 3
First Quarter
Aug 10
Full
Aug 17
Last Quarter
Aug 25
New

Today's Extremes

State Highs State Lows

Community

WunderPhotos

Upload Photos

1,739,115 photos uploaded!

WunderBlogs® & News

By Dr. Jeff Masters
Director of Meteorology, Weather Underground
By Kari Strenfel
Meteorologist, Weather Underground
By Christopher C. Burt
Weather Historian, Weather Underground
July 30, 2014
July 30, 2014
July 30, 2014

Nearby

Snow Depth

Station Depth Elevation
No new snow has been reported.

Earthquake Activity

City Distance Mag. Time & Date
No recent earthquake activity has been reported nearby.
Minimum magnitude displayed is 2.5.

Coastal Water Temperatures

Place Temperature
No Stations Reporting

Nearby Weather Stations

Station Location Temp. Heat Index Dew Point Humidity Wind Precip. Elev Updated Type
Cedar Lane, West Plains, MO 68.6 °F - 58 °F 70% SW  at  0.0 mph 0.00 in / hr 1068 ft 10:54 AM CDT Rapid Fire
Quail Run, West Plains, MO 70.9 °F 72 °F 64 °F 78% SSW  at  0.0 mph 0.00 in / hr 1138 ft 10:54 AM CDT Rapid Fire
Trail Hollow, DORA, MO 71.5 °F 73 °F 63 °F 74% SE  at  3.7 mph 0.00 in / hr 958 ft 10:54 AM CDT Rapid Fire

Show More Stations Show Fewer Stations